Kelliher, Minnesota
Current Conditions -  °F | °C
As of 2:13 PM on Sunday 25 Jan 2015 (Local Time) from KVWU Reporting Station
Overcast Overcast  
Wind Chill: 19°   Ceiling: 2000
Heat Index: 19°   Visibility: 10mi
Dew Point: 10°   Wind: 0mph
Humidity: 68%   Direction: NA
Pressure: 29.99"   Gusts: NA
Location:  47.94°N, 94.45°W
Report Text: KVWU 252013Z AUTO 00000KT 10SM OVC020 M07/M12 A2999 RMK AO2
Loading
Personal Weather Stations






























Interactive Weather Map New forecast layout! Learn more

10-Day Weather Forecast

Advertisements
Track Severe Weather on mobile